Time;durP1;ratioP1;P1;durP2;ratioP2;P2;SDS_P1;SDS_P2;PMS_P1;PMS_P2;Temp;Humidity;BMP_temperature;BMP_pressure;BME280_temperature;BME280_humidity;BME280_pressure;Samples;Min_cycle;Max_cycle;Signal;HPM_P1;HPM_P2
2021/11/12 00:14:50;;;;;;;5.07;4.78;;;7.80;75.40;;;;;;4960432;28;20035;-81
2021/11/12 00:17:16;;;;;;;6.03;5.63;;;7.80;75.30;;;;;;4946159;28;20544;-80
2021/11/12 00:19:43;;;;;;;6.90;5.70;;;7.70;75.30;;;;;;4943673;28;20094;-80
2021/11/12 00:22:09;;;;;;;4.70;4.30;;;7.70;75.30;;;;;;4942393;28;20392;-81
2021/11/12 00:24:35;;;;;;;9.40;5.40;;;7.70;75.40;;;;;;4938622;28;20199;-80
2021/11/12 00:27:04;;;;;;;11.18;5.25;;;7.70;75.50;;;;;;4941240;29;20043;-80
2021/11/12 00:29:34;;;;;;;4.93;4.63;;;7.60;75.50;;;;;;4943444;29;20047;-81
2021/11/12 00:32:10;;;;;;;5.20;4.88;;;7.70;75.70;;;;;;4948528;28;20042;-81
2021/11/12 00:39:46;;;;;;;4.43;4.22;;;7.60;75.60;;;;;;5070998;28;20477;-81
2021/11/12 00:42:22;;;;;;;5.67;5.20;;;7.70;75.70;;;;;;5070335;28;20056;-80
2021/11/12 00:44:52;;;;;;;4.67;4.27;;;7.60;75.60;;;;;;5073953;28;20489;-80
2021/11/12 00:47:27;;;;;;;5.33;5.03;;;7.60;75.60;;;;;;5071453;28;20039;-80
2021/11/12 00:55:07;;;;;;;5.57;5.13;;;7.60;75.70;;;;;;5073796;28;19909;-80
2021/11/12 00:57:33;;;;;;;5.90;4.87;;;7.50;75.60;;;;;;5071934;28;20388;-80
2021/11/12 00:59:59;;;;;;;12.57;5.40;;;7.50;75.60;;;;;;5073306;28;20032;-80
2021/11/12 01:02:27;;;;;;;5.83;5.33;;;7.50;75.70;;;;;;5052665;28;20390;-80
2021/11/12 01:04:53;;;;;;;5.83;5.43;;;7.40;75.70;;;;;;5043870;28;20036;-80
2021/11/12 01:07:19;;;;;;;7.93;7.13;;;7.40;75.70;;;;;;5053729;28;20051;-81
2021/11/12 01:09:46;;;;;;;5.37;4.97;;;7.30;75.80;;;;;;5071816;28;20032;-80
2021/11/12 01:12:12;;;;;;;5.37;5.03;;;7.30;75.80;;;;;;5075007;28;20036;-80
2021/11/12 01:14:38;;;;;;;10.40;5.67;;;7.20;75.80;;;;;;5070761;28;20048;-80
2021/11/12 01:17:04;;;;;;;5.07;4.67;;;7.20;75.80;;;;;;5071010;28;20033;-80
2021/11/12 01:19:30;;;;;;;10.13;6.23;;;7.10;76.00;;;;;;5071368;28;20029;-80
2021/11/12 01:21:56;;;;;;;6.33;5.47;;;7.10;76.10;;;;;;5072632;28;20027;-80
2021/11/12 01:24:23;;;;;;;6.93;5.87;;;7.10;76.20;;;;;;5072876;28;20492;-81
2021/11/12 01:26:49;;;;;;;9.93;5.70;;;7.10;76.20;;;;;;5072306;28;20028;-80
2021/11/12 01:29:15;;;;;;;4.70;4.40;;;7.10;76.10;;;;;;5070887;28;20035;-80
2021/11/12 01:31:42;;;;;;;5.33;5.03;;;7.10;76.10;;;;;;5069260;28;20024;-80
2021/11/12 01:34:10;;;;;;;8.13;6.40;;;7.10;76.10;;;;;;5071416;28;20028;-81
2021/11/12 01:36:41;;;;;;;8.17;5.50;;;7.10;76.10;;;;;;5071113;28;20036;-80
2021/11/12 01:39:09;;;;;;;4.37;4.13;;;7.10;76.00;;;;;;5073032;28;20036;-80
2021/11/12 01:41:38;;;;;;;5.60;5.10;;;7.10;76.10;;;;;;5070617;28;20032;-80
2021/11/12 01:44:08;;;;;;;5.33;5.00;;;7.10;76.10;;;;;;5070611;28;20036;-81
2021/11/12 01:59:16;;;;;;;5.00;4.60;;;7.10;76.10;;;;;;5071655;28;20045;-81
2021/11/12 02:02:03;;;;;;;5.47;5.18;;;7.10;76.10;;;;;;5070158;28;20398;-81
2021/11/12 02:04:30;;;;;;;5.07;4.70;;;7.10;76.10;;;;;;5070520;28;20035;-81
2021/11/12 02:06:57;;;;;;;5.27;4.87;;;7.10;76.00;;;;;;5070419;28;20025;-81
2021/11/12 02:09:24;;;;;;;4.57;4.27;;;7.00;76.00;;;;;;5071463;28;20032;-81
2021/11/12 02:11:56;;;;;;;5.40;5.10;;;7.10;76.10;;;;;;5052436;28;20040;-80
2021/11/12 02:14:23;;;;;;;8.33;4.97;;;7.00;76.10;;;;;;5068646;28;20063;-81
2021/11/12 02:17:08;;;;;;;6.03;5.53;;;7.00;76.10;;;;;;5069712;28;20044;-81
2021/11/12 02:19:35;;;;;;;5.80;5.00;;;7.00;76.20;;;;;;5068630;28;20374;-81
2021/11/12 02:22:11;;;;;;;7.70;5.93;;;6.90;76.20;;;;;;5070024;28;20032;-81
2021/11/12 02:24:42;;;;;;;5.83;5.33;;;7.00;76.30;;;;;;5070248;28;20385;-81
2021/11/12 02:27:11;;;;;;;5.23;4.93;;;6.90;76.10;;;;;;5073115;28;20016;-81
2021/11/12 02:29:43;;;;;;;7.13;6.57;;;6.90;76.20;;;;;;5070010;28;20032;-81
2021/11/12 02:32:29;;;;;;;5.33;4.93;;;6.90;76.30;;;;;;5069413;28;20036;-81
2021/11/12 02:35:02;;;;;;;5.10;4.80;;;6.90;76.30;;;;;;5069752;28;20416;-81
2021/11/12 02:37:29;;;;;;;4.60;4.33;;;6.90;76.30;;;;;;5069845;28;20028;-81
2021/11/12 02:39:55;;;;;;;7.97;5.30;;;6.90;76.30;;;;;;5070002;28;20025;-81
2021/11/12 02:42:22;;;;;;;5.03;4.73;;;6.90;76.20;;;;;;5054144;28;20024;-81
2021/11/12 02:44:48;;;;;;;4.20;3.97;;;6.90;76.30;;;;;;5070510;28;20039;-81
2021/11/12 02:47:17;;;;;;;5.05;4.65;;;6.90;76.30;;;;;;5069154;28;20385;-81
2021/11/12 02:49:43;;;;;;;5.63;5.23;;;6.90;76.30;;;;;;5068333;28;20032;-81
2021/11/12 02:52:10;;;;;;;5.83;5.33;;;6.80;76.20;;;;;;5069790;28;20032;-81
2021/11/12 02:54:37;;;;;;;5.10;4.80;;;6.80;76.20;;;;;;5069575;28;20037;-81
2021/11/12 02:57:04;;;;;;;5.03;4.50;;;6.80;76.30;;;;;;5071494;28;20358;-81
2021/11/12 02:59:30;;;;;;;5.33;5.03;;;6.80;76.20;;;;;;5067921;28;20036;-81
2021/11/12 03:02:02;;;;;;;6.17;5.63;;;6.80;76.20;;;;;;5068625;28;20032;-81
2021/11/12 03:04:28;;;;;;;4.93;4.63;;;6.80;76.30;;;;;;5049575;28;20037;-81
2021/11/12 03:06:55;;;;;;;6.97;6.03;;;6.80;76.30;;;;;;5060379;28;20032;-81
2021/11/12 03:09:25;;;;;;;9.00;4.93;;;6.80;76.30;;;;;;5068834;28;20032;-81
2021/11/12 03:11:52;;;;;;;5.18;4.82;;;6.70;76.20;;;;;;5064487;28;20025;-81
2021/11/12 03:14:18;;;;;;;5.13;4.83;;;6.70;76.20;;;;;;5059247;28;20083;-81
2021/11/12 03:16:45;;;;;;;6.53;6.03;;;6.70;76.30;;;;;;5046250;28;20527;-81
2021/11/12 03:19:12;;;;;;;5.70;5.20;;;6.70;76.40;;;;;;5067414;28;20032;-81
2021/11/12 03:21:39;;;;;;;6.27;5.77;;;6.70;76.40;;;;;;5050998;28;20024;-81
2021/11/12 03:24:17;;;;;;;6.07;5.57;;;6.60;76.40;;;;;;5062232;28;20032;-81
2021/11/12 03:26:55;;;;;;;5.60;5.20;;;6.50;76.40;;;;;;5045377;28;20466;-81
2021/11/12 04:04:43;;;;;;;7.00;5.03;;;6.10;76.60;;;;;;5069571;28;20065;-81
2021/11/12 04:18:29;;;;;;;4.40;4.10;;;5.90;76.70;;;;;;5008641;28;20033;-81
2021/11/12 05:10:18;;;;;;;4.97;4.67;;;5.70;76.70;;;;;;5062897;28;20039;-81
2021/11/12 05:34:37;;;;;;;4.80;4.37;;;5.30;77.00;;;;;;4994000;28;20038;-81
2021/11/12 05:55:58;;;;;;;4.33;4.10;;;5.30;77.10;;;;;;4985711;28;20539;-81
2021/11/12 05:58:24;;;;;;;5.00;4.60;;;5.40;77.10;;;;;;4981485;28;20057;-81
2021/11/12 06:00:51;;;;;;;4.63;4.33;;;5.40;77.00;;;;;;4977117;28;20041;-81
2021/11/12 06:03:17;;;;;;;4.43;4.20;;;5.40;77.00;;;;;;4963734;28;20030;-81
2021/11/12 06:05:43;;;;;;;4.30;4.10;;;5.50;76.90;;;;;;4981016;28;20617;-81
2021/11/12 06:08:09;;;;;;;4.30;4.00;;;5.50;76.80;;;;;;4981286;28;20045;-81
2021/11/12 06:10:35;;;;;;;4.00;3.80;;;5.40;76.80;;;;;;5013057;28;20044;-81
2021/11/12 06:13:02;;;;;;;4.67;4.23;;;5.40;76.90;;;;;;5070519;28;20025;-81
2021/11/12 06:15:28;;;;;;;3.67;3.43;;;5.50;76.90;;;;;;5070422;28;20024;-81
2021/11/12 06:17:54;;;;;;;4.23;3.97;;;5.50;76.80;;;;;;5071945;28;20031;-81
2021/11/12 06:20:20;;;;;;;4.20;3.93;;;5.50;76.80;;;;;;5069680;28;20040;-81
2021/11/12 06:22:47;;;;;;;3.97;3.77;;;5.50;76.80;;;;;;5071445;28;20029;-81
2021/11/12 06:25:13;;;;;;;4.90;4.50;;;5.50;76.80;;;;;;5070402;28;20460;-81
2021/11/12 06:27:39;;;;;;;4.23;4.03;;;5.50;76.80;;;;;;5071272;28;20032;-81
2021/11/12 06:30:06;;;;;;;4.73;4.43;;;5.50;76.80;;;;;;5071568;28;20033;-81
2021/11/12 06:32:32;;;;;;;4.20;4.00;;;5.50;76.80;;;;;;5069941;28;20025;-81
2021/11/12 06:34:58;;;;;;;4.67;4.37;;;5.50;76.80;;;;;;5070811;28;20115;-80
2021/11/12 06:37:24;;;;;;;4.40;4.20;;;5.50;76.80;;;;;;5071120;28;20024;-81
2021/11/12 06:39:50;;;;;;;4.40;4.17;;;5.50;76.80;;;;;;5069820;28;20040;-81
2021/11/12 06:42:20;;;;;;;5.33;5.03;;;5.40;76.70;;;;;;5072623;28;20021;-81
2021/11/12 06:50:12;;;;;;;7.73;6.97;;;5.20;77.10;;;;;;5069406;28;20488;-81
2021/11/12 06:52:43;;;;;;;4.47;4.17;;;5.20;77.10;;;;;;5069597;28;20031;-81
2021/11/12 06:55:10;;;;;;;6.55;5.95;;;5.20;77.00;;;;;;5069696;28;20028;-81
2021/11/12 06:57:37;;;;;;;4.53;4.23;;;5.20;77.30;;;;;;5053072;28;20037;-81
2021/11/12 07:00:07;;;;;;;5.10;4.80;;;5.20;77.30;;;;;;5072371;28;20086;-81
2021/11/12 07:02:33;;;;;;;7.20;4.83;;;5.10;77.30;;;;;;5070256;28;20024;-81
2021/11/12 07:04:59;;;;;;;4.37;4.10;;;5.20;77.30;;;;;;5069245;28;20040;-81
2021/11/12 07:07:27;;;;;;;4.73;4.43;;;5.20;77.30;;;;;;5054066;28;20496;-81
2021/11/12 07:09:54;;;;;;;5.97;5.47;;;5.20;77.30;;;;;;5069598;28;20033;-81
2021/11/12 07:12:20;;;;;;;4.97;4.67;;;5.20;77.20;;;;;;5054064;28;20029;-81
2021/11/12 07:14:46;;;;;;;4.27;3.97;;;5.20;77.20;;;;;;5071259;28;20453;-81
2021/11/12 07:17:12;;;;;;;4.80;4.50;;;5.20;77.10;;;;;;5068318;28;20378;-81
2021/11/12 07:19:39;;;;;;;3.70;3.50;;;5.20;77.10;;;;;;5070429;28;20045;-81
2021/11/12 07:22:05;;;;;;;5.73;4.37;;;5.20;77.00;;;;;;5054302;28;20045;-81
2021/11/12 07:24:31;;;;;;;7.40;5.20;;;5.20;77.00;;;;;;5069267;28;20033;-81
2021/11/12 07:26:59;;;;;;;9.63;4.90;;;5.20;77.00;;;;;;5071255;28;20377;-81
2021/11/12 07:29:27;;;;;;;5.50;5.17;;;5.20;77.00;;;;;;5067637;28;20029;-81
2021/11/12 07:31:54;;;;;;;4.40;4.10;;;5.30;77.10;;;;;;5069470;28;20040;-81
2021/11/12 07:34:21;;;;;;;4.57;4.27;;;5.30;77.00;;;;;;5069185;28;20029;-81
2021/11/12 07:36:51;;;;;;;5.07;4.43;;;5.30;77.00;;;;;;5070382;28;20048;-81
2021/11/12 07:44:54;;;;;;;5.60;4.67;;;5.40;76.90;;;;;;5052639;28;20033;-81
2021/11/12 07:47:22;;;;;;;4.75;4.45;;;5.50;76.80;;;;;;5049648;28;20037;-81
2021/11/12 07:49:59;;;;;;;4.27;4.00;;;5.50;76.70;;;;;;5060353;28;20484;-81
2021/11/12 07:52:30;;;;;;;3.87;3.67;;;5.50;76.60;;;;;;5070453;28;20043;-81
2021/11/12 07:54:57;;;;;;;4.72;4.43;;;5.60;76.70;;;;;;5073171;28;20669;-81
2021/11/12 07:57:23;;;;;;;3.77;3.57;;;5.60;76.60;;;;;;5057624;28;20416;-81
2021/11/12 07:59:49;;;;;;;4.97;4.67;;;5.60;76.60;;;;;;5075184;28;20048;-81
2021/11/12 08:02:17;;;;;;;4.67;4.37;;;5.60;76.70;;;;;;5070652;28;20385;-81
2021/11/12 08:04:47;;;;;;;5.07;4.73;;;5.60;76.80;;;;;;5073017;28;20421;-81
2021/11/12 08:07:14;;;;;;;5.05;4.68;;;5.60;76.80;;;;;;5072558;28;20028;-81
2021/11/12 08:09:50;;;;;;;4.70;4.33;;;5.70;76.70;;;;;;5072835;28;20036;-81
2021/11/12 08:12:21;;;;;;;4.60;4.30;;;5.70;76.70;;;;;;5071079;28;20470;-81
2021/11/12 08:17:23;;;;;;;4.27;4.07;;;5.80;76.60;;;;;;5074114;28;20040;-81
2021/11/12 08:19:59;;;;;;;4.47;4.17;;;5.90;76.60;;;;;;5072619;28;20047;-81
2021/11/12 08:27:35;;;;;;;5.37;4.97;;;6.20;76.40;;;;;;5075312;28;20051;-81
2021/11/12 08:37:48;;;;;;;5.40;5.00;;;6.50;76.00;;;;;;5076081;28;20047;-81
2021/11/12 08:45:42;;;;;;;5.07;4.70;;;6.80;76.20;;;;;;5034099;28;20536;-81
2021/11/12 08:48:13;;;;;;;4.67;4.37;;;6.80;76.10;;;;;;5037570;28;20052;-82
2021/11/12 08:50:39;;;;;;;6.53;6.13;;;6.90;76.10;;;;;;5033473;28;20037;-82
2021/11/12 08:53:10;;;;;;;4.73;4.43;;;7.00;76.00;;;;;;5034425;28;20144;-82
2021/11/12 08:55:37;;;;;;;6.75;6.28;;;7.10;76.70;;;;;;5046452;28;20026;-82
2021/11/12 08:58:05;;;;;;;6.87;6.17;;;7.30;76.00;;;;;;5031812;28;20059;-82
2021/11/12 09:00:32;;;;;;;8.50;5.93;;;7.40;75.90;;;;;;5048279;28;20044;-82
2021/11/12 09:02:58;;;;;;;6.80;6.10;;;7.50;75.60;;;;;;5048136;28;20029;-81
2021/11/12 09:05:25;;;;;;;4.77;4.47;;;7.70;75.50;;;;;;5015283;28;20034;-82
2021/11/12 09:07:51;;;;;;;4.80;4.40;;;7.70;75.40;;;;;;5019783;28;20069;-82
2021/11/12 09:10:18;;;;;;;5.67;5.10;;;7.80;75.50;;;;;;5018505;28;20037;-82
2021/11/12 09:12:48;;;;;;;4.70;4.40;;;7.90;75.50;;;;;;5034397;28;20044;-81
2021/11/12 09:15:35;;;;;;;6.23;5.73;;;8.00;75.50;;;;;;5012020;28;20433;-81
2021/11/12 09:18:01;;;;;;;4.95;4.53;;;8.10;75.50;;;;;;5023046;28;20477;-82
2021/11/12 09:20:28;;;;;;;5.25;4.85;;;8.20;75.40;;;;;;5048712;28;20489;-82
2021/11/12 09:22:55;;;;;;;6.30;5.63;;;8.30;75.40;;;;;;5051223;28;20047;-82
2021/11/12 09:25:21;;;;;;;5.22;4.93;;;8.40;75.40;;;;;;5053654;28;20025;-82
2021/11/12 09:27:48;;;;;;;5.90;5.10;;;8.50;75.30;;;;;;5071132;28;20021;-82
2021/11/12 09:30:20;;;;;;;6.35;4.85;;;8.60;75.20;;;;;;5056381;28;20047;-82
2021/11/12 09:32:46;;;;;;;5.45;4.97;;;8.70;75.20;;;;;;5070752;28;20033;-82
2021/11/12 09:35:13;;;;;;;4.82;4.47;;;8.90;75.20;;;;;;5071014;28;20044;-82
2021/11/12 09:37:39;;;;;;;6.40;5.57;;;9.00;75.10;;;;;;5071072;28;20040;-82
2021/11/12 09:40:06;;;;;;;6.55;6.05;;;9.10;75.00;;;;;;5071148;28;20047;-82
2021/11/12 09:42:33;;;;;;;4.72;4.43;;;9.10;74.90;;;;;;5070807;28;20416;-82
2021/11/12 09:45:00;;;;;;;4.78;4.47;;;9.30;75.00;;;;;;5072976;28;20036;-82
2021/11/12 09:47:27;;;;;;;5.18;4.50;;;9.30;74.90;;;;;;5070590;28;20043;-82
2021/11/12 09:49:58;;;;;;;6.95;5.65;;;9.40;75.00;;;;;;5071007;28;20024;-82
2021/11/12 09:52:24;;;;;;;5.35;4.97;;;9.50;74.90;;;;;;5070815;28;20036;-82
2021/11/12 09:54:51;;;;;;;5.43;5.05;;;9.60;74.90;;;;;;5071998;28;20803;-82
2021/11/12 09:57:18;;;;;;;7.50;6.57;;;9.70;74.80;;;;;;5073304;28;20393;-82
2021/11/12 09:59:52;;;;;;;6.95;6.18;;;9.80;74.80;;;;;;5050116;28;20045;-82
2021/11/12 10:02:21;;;;;;;5.80;5.40;;;9.80;74.70;;;;;;5049527;28;20044;-81
2021/11/12 10:04:47;;;;;;;6.05;5.65;;;9.90;74.70;;;;;;5052261;28;20045;-82
2021/11/12 10:07:15;;;;;;;5.53;5.22;;;10.00;74.70;;;;;;5042760;28;20033;-82
2021/11/12 10:09:42;;;;;;;6.63;6.00;;;10.10;74.70;;;;;;5070641;28;20366;-81
2021/11/12 10:12:09;;;;;;;5.53;5.13;;;10.10;74.70;;;;;;5072246;28;20024;-82
2021/11/12 10:14:49;;;;;;;6.75;5.53;;;10.10;74.70;;;;;;5070005;28;20039;-81
2021/11/12 10:17:15;;;;;;;5.85;5.25;;;10.10;74.70;;;;;;5069532;28;20045;-81
2021/11/12 10:19:43;;;;;;;5.18;4.78;;;10.20;74.70;;;;;;5070433;28;20044;-81
2021/11/12 10:22:09;;;;;;;5.93;5.53;;;10.20;74.70;;;;;;5070404;28;20032;-82
2021/11/12 10:24:37;;;;;;;6.05;5.55;;;10.20;74.80;;;;;;5070258;28;20039;-82
2021/11/12 10:27:14;;;;;;;6.60;6.10;;;10.30;74.80;;;;;;5055485;28;20044;-81
2021/11/12 10:29:46;;;;;;;7.40;6.68;;;10.30;74.80;;;;;;5070225;28;20035;-82
2021/11/12 10:32:17;;;;;;;7.40;5.40;;;10.40;74.90;;;;;;5069623;28;20037;-82
2021/11/12 10:34:44;;;;;;;5.80;4.95;;;10.40;74.90;;;;;;5069695;28;20069;-82
2021/11/12 10:37:11;;;;;;;5.13;4.78;;;10.40;74.80;;;;;;5069788;28;20037;-82
2021/11/12 10:39:50;;;;;;;5.95;5.40;;;10.50;74.80;;;;;;5071060;28;20040;-82
2021/11/12 10:42:22;;;;;;;5.18;4.85;;;10.50;74.80;;;;;;5068111;28;20512;-82
2021/11/12 10:44:49;;;;;;;5.00;4.60;;;10.60;74.80;;;;;;5071825;28;20146;-82
2021/11/12 10:47:16;;;;;;;5.68;5.28;;;10.60;74.70;;;;;;5069243;28;20027;-81
2021/11/12 10:49:43;;;;;;;8.00;4.97;;;10.70;74.70;;;;;;5069663;28;20032;-81
2021/11/12 10:52:19;;;;;;;4.32;4.10;;;10.70;74.70;;;;;;5069428;28;20037;-82
2021/11/12 10:55:01;;;;;;;4.93;4.63;;;10.80;74.80;;;;;;5053807;28;20032;-82
2021/11/12 10:57:51;;;;;;;5.07;4.68;;;10.90;74.90;;;;;;5053759;28;20493;-82
2021/11/12 11:00:30;;;;;;;7.13;6.53;;;10.90;74.90;;;;;;5052501;28;20052;-81
2021/11/12 11:03:09;;;;;;;9.63;4.63;;;11.00;74.90;;;;;;5071613;28;20524;-81
2021/11/12 11:05:39;;;;;;;4.82;4.38;;;11.00;74.90;;;;;;5069533;28;20043;-81
2021/11/12 11:08:07;;;;;;;5.03;4.63;;;11.00;74.80;;;;;;5070573;28;20104;-81
2021/11/12 11:10:35;;;;;;;5.50;5.10;;;11.10;74.90;;;;;;5068541;28;20416;-82
2021/11/12 11:13:10;;;;;;;10.07;5.90;;;11.10;74.90;;;;;;5069600;28;20488;-81
2021/11/12 11:15:46;;;;;;;5.20;4.80;;;11.20;74.90;;;;;;5068969;28;20037;-81
2021/11/12 11:18:18;;;;;;;5.90;5.45;;;11.20;74.90;;;;;;5072838;28;20402;-81
2021/11/12 11:24:09;;;;;;;4.78;4.45;;;11.30;75.00;;;;;;5071505;28;20055;-81
2021/11/12 11:26:46;;;;;;;6.22;4.97;;;11.40;75.00;;;;;;5068758;28;20036;-81
2021/11/12 11:29:16;;;;;;;4.72;4.40;;;11.50;74.90;;;;;;5069336;28;20020;-82
2021/11/12 11:31:42;;;;;;;4.93;4.50;;;11.50;74.90;;;;;;5054285;28;20473;-81
2021/11/12 11:34:09;;;;;;;4.55;4.32;;;11.60;74.90;;;;;;5053776;28;20286;-81
2021/11/12 11:36:38;;;;;;;9.45;5.20;;;11.60;74.90;;;;;;5069094;28;20053;-82
2021/11/12 11:39:08;;;;;;;5.07;4.68;;;11.60;75.00;;;;;;5051001;28;20411;-81
2021/11/12 11:41:34;;;;;;;4.07;3.88;;;11.70;75.10;;;;;;5049272;28;20035;-81
2021/11/12 11:44:00;;;;;;;5.32;4.93;;;11.70;75.10;;;;;;5050191;28;20033;-81
2021/11/12 11:46:31;;;;;;;4.70;4.20;;;11.80;76.00;;;;;;5048819;28;20383;-81
2021/11/12 11:48:58;;;;;;;7.63;4.80;;;11.80;75.30;;;;;;5049519;28;20037;-81
2021/11/12 11:51:26;;;;;;;6.00;5.22;;;11.80;75.30;;;;;;5050342;28;20025;-81
2021/11/12 11:53:52;;;;;;;4.68;4.35;;;11.80;75.30;;;;;;5051064;28;20040;-81
2021/11/12 11:56:19;;;;;;;6.93;5.03;;;11.90;75.40;;;;;;5047571;28;20025;-81
2021/11/12 11:59:19;;;;;;;7.47;5.05;;;11.90;75.40;;;;;;5049252;28;20494;-81
2021/11/12 12:01:49;;;;;;;5.65;5.15;;;12.00;75.50;;;;;;5044133;28;20033;-81
2021/11/12 12:04:16;;;;;;;7.72;5.65;;;12.10;75.40;;;;;;5049982;28;20382;-81
2021/11/12 12:06:43;;;;;;;5.90;5.28;;;12.20;75.40;;;;;;5049969;28;20421;-82
2021/11/12 12:09:12;;;;;;;4.70;4.03;;;12.20;75.30;;;;;;5050996;28;20021;-82
2021/11/12 12:11:42;;;;;;;5.43;4.50;;;12.30;75.30;;;;;;5047064;28;20505;-81
2021/11/12 12:14:21;;;;;;;4.40;4.13;;;12.40;75.40;;;;;;5048989;28;20048;-82
2021/11/12 12:17:02;;;;;;;5.07;4.65;;;12.40;76.20;;;;;;5048491;28;20033;-81
2021/11/12 12:19:48;;;;;;;3.70;3.50;;;12.50;75.40;;;;;;5049905;28;20036;-81
2021/11/12 12:43:13;;;;;;;5.28;4.82;;;13.10;75.50;;;;;;5052099;28;20049;-81
2021/11/12 13:25:33;;;;;;;4.97;4.45;;;14.00;75.30;;;;;;5055101;28;20512;-81
2021/11/12 13:28:19;;;;;;;5.25;4.95;;;14.00;75.30;;;;;;5052469;28;20037;-81
2021/11/12 13:31:11;;;;;;;5.20;4.90;;;14.00;75.40;;;;;;5034701;28;20021;-81
2021/11/12 13:33:56;;;;;;;6.63;4.93;;;14.10;75.50;;;;;;5050321;28;20037;-81
2021/11/12 13:36:30;;;;;;;6.65;4.38;;;14.10;75.40;;;;;;5049608;28;20512;-81
2021/11/12 13:38:59;;;;;;;6.45;5.78;;;14.20;75.40;;;;;;5053508;28;20036;-81
2021/11/12 13:41:30;;;;;;;5.18;4.88;;;14.20;75.40;;;;;;5051496;28;20425;-81
2021/11/12 13:44:00;;;;;;;;;;;14.20;75.50;;;;;;5051766;28;20020;-81
2021/11/12 13:46:26;;;;;;;6.70;6.05;;;14.20;75.60;;;;;;5050856;28;19908;-81
2021/11/12 13:48:53;;;;;;;5.05;4.70;;;14.10;75.60;;;;;;5051045;28;20052;-81
2021/11/12 13:51:27;;;;;;;12.43;5.05;;;14.10;75.70;;;;;;5052252;28;20028;-82
2021/11/12 13:53:53;;;;;;;5.05;4.75;;;14.00;75.80;;;;;;5053576;28;20033;-82
2021/11/12 13:56:20;;;;;;;4.82;4.55;;;14.00;75.90;;;;;;5051232;28;20017;-81
2021/11/12 13:58:46;;;;;;;5.22;4.80;;;13.90;76.10;;;;;;5049402;28;20029;-81
2021/11/12 14:01:22;;;;;;;5.25;4.88;;;13.90;76.00;;;;;;5050486;28;20513;-81
2021/11/12 14:03:49;;;;;;;5.45;5.05;;;13.90;76.20;;;;;;5034253;28;20477;-81
2021/11/12 14:06:17;;;;;;;5.07;4.78;;;13.90;76.20;;;;;;5052920;28;20029;-82
2021/11/12 14:08:44;;;;;;;7.57;4.47;;;13.90;76.10;;;;;;5049984;28;20048;-81
2021/11/12 14:11:24;;;;;;;4.80;4.35;;;14.00;76.10;;;;;;5051646;28;20139;-82
2021/11/12 14:13:52;;;;;;;5.32;4.97;;;14.00;76.10;;;;;;5066597;28;20041;-81
2021/11/12 14:16:34;;;;;;;4.80;4.50;;;14.10;76.10;;;;;;5050492;28;20044;-81
2021/11/12 14:21:45;;;;;;;4.70;4.40;;;14.10;76.00;;;;;;5056717;28;20043;-81
2021/11/12 14:27:23;;;;;;;4.57;4.38;;;14.20;76.00;;;;;;5055048;28;20048;-81
2021/11/12 14:46:05;;;;;;;5.40;5.00;;;14.30;76.00;;;;;;4989707;28;20134;-81
2021/11/12 14:48:39;;;;;;;6.25;5.13;;;14.30;76.00;;;;;;4987489;28;20047;-81
2021/11/12 14:53:39;;;;;;;5.07;4.78;;;14.30;76.10;;;;;;4989814;28;20041;-81
2021/11/12 14:58:35;;;;;;;4.95;4.65;;;14.30;76.10;;;;;;4990344;28;20053;-82
2021/11/12 15:01:22;;;;;;;5.38;5.00;;;14.30;76.10;;;;;;4987614;28;20054;-81
2021/11/12 15:03:50;;;;;;;5.13;4.82;;;14.30;76.30;;;;;;4974393;28;20035;-82
2021/11/12 15:06:19;;;;;;;5.28;4.88;;;14.20;76.20;;;;;;4991380;28;20030;-81
2021/11/12 15:08:56;;;;;;;4.75;4.45;;;14.20;76.30;;;;;;4969694;28;20134;-81
2021/11/12 15:11:25;;;;;;;4.65;4.45;;;14.20;76.30;;;;;;4967333;28;20023;-81
2021/11/12 15:13:53;;;;;;;5.28;4.97;;;14.20;76.40;;;;;;4971408;28;20404;-81
2021/11/12 15:16:21;;;;;;;6.38;4.68;;;14.20;76.40;;;;;;4987208;28;20034;-81
2021/11/12 15:18:49;;;;;;;4.80;4.50;;;14.20;76.50;;;;;;4974193;28;20034;-81
2021/11/12 15:21:24;;;;;;;5.75;5.28;;;14.10;76.50;;;;;;5028936;28;20049;-81
2021/11/12 15:27:09;;;;;;;4.32;4.13;;;14.10;76.60;;;;;;5051717;28;20039;-81
2021/11/12 15:34:05;;;;;;;7.63;6.15;;;14.00;76.60;;;;;;5051660;28;20474;-81
2021/11/12 15:36:33;;;;;;;5.07;4.78;;;14.00;76.70;;;;;;5050256;28;20049;-81
2021/11/12 15:39:08;;;;;;;4.93;4.63;;;14.00;76.80;;;;;;5033130;28;20373;-82
2021/11/12 15:44:34;;;;;;;4.43;4.20;;;14.00;76.80;;;;;;5050952;28;20025;-81
2021/11/12 15:47:05;;;;;;;4.43;4.13;;;14.00;76.90;;;;;;5048786;28;20052;-81
2021/11/12 15:49:31;;;;;;;;;;;13.90;76.80;;;;;;5049116;28;20501;-81
2021/11/12 15:52:05;;;;;;;5.18;4.88;;;13.90;76.90;;;;;;5050177;28;19909;-81
2021/11/12 15:57:29;;;;;;;;;;;14.00;76.90;;;;;;5053830;28;20044;-81
2021/11/12 16:20:34;;;;;;;4.55;4.20;;;13.80;77.10;;;;;;5054112;28;20040;-81
2021/11/12 16:25:29;;;;;;;5.28;4.57;;;13.80;77.20;;;;;;5054333;28;20036;-82
2021/11/12 16:27:59;;;;;;;6.28;4.43;;;13.80;77.20;;;;;;5053252;28;20032;-81
2021/11/12 16:30:30;;;;;;;5.25;4.90;;;13.80;77.30;;;;;;5053160;28;20037;-81
2021/11/12 16:32:58;;;;;;;6.57;4.38;;;13.80;77.40;;;;;;5038459;28;20048;-81
2021/11/12 16:35:26;;;;;;;5.00;4.57;;;13.80;77.40;;;;;;5050873;28;20037;-81
2021/11/12 16:37:56;;;;;;;5.28;4.78;;;13.80;77.40;;;;;;5032331;28;20048;-81
2021/11/12 16:40:31;;;;;;;4.93;4.53;;;13.80;77.40;;;;;;5041026;28;20025;-82
2021/11/12 16:43:10;;;;;;;4.35;4.13;;;13.80;77.50;;;;;;5051346;28;20041;-81
2021/11/12 16:48:39;;;;;;;6.43;4.75;;;13.80;77.60;;;;;;5059372;28;20489;-82
2021/11/12 16:52:05;;;;;;;4.55;4.05;;;13.70;77.60;;;;;;5051491;28;20041;-81
2021/11/12 16:54:13;;;;;;;4.45;4.15;;;13.70;77.60;;;;;;5047786;28;20045;-81
2021/11/12 16:59:39;;;;;;;4.25;3.95;;;13.70;77.70;;;;;;4980493;28;20043;-81
2021/11/12 17:47:11;;;;;;;5.38;4.97;;;13.50;78.00;;;;;;4992403;28;20045;-81
2021/11/12 18:16:55;;;;;;;4.82;4.43;;;13.60;78.10;;;;;;5052818;28;20036;-81
2021/11/12 21:46:34;;;;;;;3.85;3.65;;;13.10;79.70;;;;;;5009185;28;20033;-82
2021/11/12 21:49:01;;;;;;;4.28;4.07;;;13.20;79.80;;;;;;4992412;28;20027;-82
2021/11/12 21:51:29;;;;;;;3.85;3.65;;;13.20;79.80;;;;;;4995372;28;20108;-82
2021/11/12 21:53:58;;;;;;;4.18;3.97;;;13.20;79.80;;;;;;4995338;28;20509;-81
2021/11/12 21:56:24;;;;;;;3.70;3.50;;;13.20;79.90;;;;;;5009879;28;20077;-82
2021/11/12 21:58:50;;;;;;;4.28;4.07;;;13.20;79.90;;;;;;4992494;28;20046;-81
2021/11/12 22:01:17;;;;;;;4.22;4.03;;;13.20;79.90;;;;;;4991337;28;20026;-81
2021/11/12 22:03:43;;;;;;;4.25;4.05;;;13.20;80.00;;;;;;5010661;28;20045;-81
2021/11/12 22:06:10;;;;;;;4.07;3.88;;;13.20;80.00;;;;;;5052162;28;20036;-81
2021/11/12 22:08:36;;;;;;;4.07;3.88;;;13.20;80.00;;;;;;5052104;28;20520;-81
2021/11/12 22:11:04;;;;;;;3.88;3.67;;;13.20;80.00;;;;;;5050717;28;20029;-81
2021/11/12 22:13:31;;;;;;;4.00;3.80;;;13.20;80.00;;;;;;5051746;28;20021;-83
2021/11/12 22:15:57;;;;;;;3.90;3.70;;;13.20;80.10;;;;;;5050310;28;20037;-82
2021/11/12 22:18:24;;;;;;;10.55;3.95;;;13.10;80.00;;;;;;5051733;28;20021;-81
2021/11/12 22:20:50;;;;;;;4.10;3.83;;;13.20;80.10;;;;;;5050157;28;20385;-82
2021/11/12 22:23:17;;;;;;;3.85;3.65;;;13.10;80.10;;;;;;5050690;28;20033;-82
2021/11/12 22:25:43;;;;;;;3.75;3.55;;;13.10;80.20;;;;;;5048434;28;20492;-81
2021/11/12 22:28:09;;;;;;;3.67;3.47;;;13.10;80.20;;;;;;5050748;28;20041;-81
2021/11/12 22:30:37;;;;;;;3.92;3.72;;;13.10;80.20;;;;;;5049586;28;20040;-81
2021/11/12 22:33:04;;;;;;;4.20;3.90;;;13.10;80.30;;;;;;5053313;28;20021;-81
2021/11/12 22:35:31;;;;;;;4.40;4.13;;;13.00;80.20;;;;;;5050373;28;20499;-82
2021/11/12 22:37:58;;;;;;;4.03;3.83;;;13.00;80.20;;;;;;5051237;28;20021;-83
2021/11/12 22:40:24;;;;;;;4.22;3.97;;;13.00;80.20;;;;;;5050380;28;20033;-83
2021/11/12 22:42:50;;;;;;;3.78;3.58;;;13.00;80.20;;;;;;5050435;28;20041;-81
2021/11/12 22:45:16;;;;;;;3.35;3.25;;;13.00;80.20;;;;;;5051213;28;20040;-82
2021/11/12 22:47:44;;;;;;;3.53;3.33;;;13.00;80.20;;;;;;5050302;28;20043;-82
2021/11/12 22:50:12;;;;;;;3.85;3.65;;;13.00;80.20;;;;;;5049988;28;20025;-82
2021/11/12 22:52:38;;;;;;;3.80;3.60;;;13.00;80.30;;;;;;5049988;28;20041;-83
2021/11/12 22:55:05;;;;;;;4.30;4.00;;;13.00;80.20;;;;;;5050967;28;20044;-81
2021/11/12 22:57:31;;;;;;;3.58;3.42;;;13.00;80.40;;;;;;5050672;28;20472;-81
2021/11/12 22:59:57;;;;;;;3.63;3.42;;;13.00;80.30;;;;;;5051302;28;20029;-82
2021/11/12 23:02:24;;;;;;;3.75;3.55;;;13.00;80.40;;;;;;5048492;28;20051;-82
2021/11/12 23:04:50;;;;;;;3.50;3.40;;;13.00;80.40;;;;;;5048273;28;20382;-80
2021/11/12 23:07:16;;;;;;;3.75;3.55;;;12.90;80.30;;;;;;5050932;28;20039;-80
2021/11/12 23:09:44;;;;;;;4.00;3.70;;;12.90;80.30;;;;;;5049738;28;20036;-80
2021/11/12 23:12:11;;;;;;;6.35;4.00;;;12.90;80.30;;;;;;5051653;28;20378;-80
2021/11/12 23:14:37;;;;;;;3.80;3.60;;;12.90;80.30;;;;;;5050433;28;20521;-80
2021/11/12 23:17:04;;;;;;;4.15;3.85;;;12.90;80.50;;;;;;5047065;28;20375;-80
2021/11/12 23:19:30;;;;;;;4.00;3.80;;;12.90;80.40;;;;;;5033983;28;20032;-80
2021/11/12 23:21:56;;;;;;;3.80;3.60;;;12.90;80.50;;;;;;5048516;28;20048;-80